Terminal Aerodrome Forecast
Issued by NWS

Home | Current Version | Previous Version | Text Only | Print | Product List | Glossary On
Versions: 1 2 3 4 5 6 7 8 9 10 11 12 13 14 15 16 17 18 19 20 21 22 23
000
FTUS46 KLOX 210531
TAFBUR
TAF
KBUR 210531Z 2106/2206 30010KT P6SM SCT250 WS015/36035KT
     FM211100 VRB03KT P6SM SCT250
     FM212200 19008KT P6SM SCT250
     FM220400 VRB03KT P6SM SCT250=

USA.gov is the U.S. government's official web portal to all federal, state and local government web resources and services.